Time;durP1;ratioP1;P1;durP2;ratioP2;P2;SDS_P1;SDS_P2;PMS_P1;PMS_P2;Temp;Humidity;BMP_temperature;BMP_pressure;BME280_temperature;BME280_humidity;BME280_pressure;Samples;Min_cycle;Max_cycle;Signal;HPM_P1;HPM_P2
2023/03/21 00:01:13;;;;;;;44.47;27.90;;;11.40;99.90;;;;;;4988904;28;20026;-82
2023/03/21 00:03:40;;;;;;;41.25;26.17;;;11.40;99.90;;;;;;4986477;28;20081;-81
2023/03/21 00:06:12;;;;;;;50.67;28.67;;;11.40;99.90;;;;;;4989700;28;20024;-82
2023/03/21 00:08:38;;;;;;;50.05;30.92;;;11.30;99.90;;;;;;4989879;28;20513;-80
2023/03/21 00:11:07;;;;;;;42.78;26.35;;;11.30;99.90;;;;;;5006168;28;20026;-81
2023/03/21 00:13:37;;;;;;;47.55;29.88;;;11.30;99.90;;;;;;5007579;28;20034;-81
2023/03/21 00:16:14;;;;;;;47.57;30.43;;;11.30;99.90;;;;;;4992065;28;20484;-82
2023/03/21 00:18:41;;;;;;;32.90;23.70;;;11.30;99.90;;;;;;4989245;28;20172;-82
2023/03/21 00:21:10;;;;;;;50.85;32.22;;;11.30;99.90;;;;;;4990926;28;20027;-84
2023/03/21 00:23:35;;;;;;;53.17;32.83;;;11.30;99.90;;;;;;4992280;28;20029;-82
2023/03/21 00:26:01;;;;;;;46.33;30.45;;;11.30;99.90;;;;;;5006078;28;20022;-83
2023/03/21 00:28:27;;;;;;;56.40;35.92;;;11.20;99.90;;;;;;4992908;28;20087;-82
2023/03/21 00:30:59;;;;;;;54.97;35.30;;;11.30;99.90;;;;;;4991556;28;20085;-81
2023/03/21 00:33:26;;;;;;;53.78;35.55;;;11.20;99.90;;;;;;4991643;28;20053;-81
2023/03/21 00:35:52;;;;;;;62.08;39.38;;;11.20;99.90;;;;;;4991265;28;20089;-82
2023/03/21 00:38:20;;;;;;;44.53;27.83;;;11.20;99.90;;;;;;4989385;28;20062;-81
2023/03/21 00:40:49;;;;;;;59.72;34.40;;;11.10;99.90;;;;;;4991327;28;20030;-81
2023/03/21 00:43:18;;;;;;;53.33;33.53;;;11.20;99.90;;;;;;5004961;28;20054;-82
2023/03/21 00:45:44;;;;;;;47.90;32.53;;;11.10;99.90;;;;;;5004364;28;20022;-82
2023/03/21 00:48:10;;;;;;;47.63;29.77;;;11.00;99.90;;;;;;5003858;28;20114;-83
2023/03/21 00:50:38;;;;;;;56.10;35.83;;;11.00;99.90;;;;;;5005417;28;20077;-82
2023/03/21 00:53:04;;;;;;;48.67;35.65;;;11.00;99.90;;;;;;4990527;28;20393;-81
2023/03/21 00:55:30;;;;;;;53.10;33.75;;;10.90;99.90;;;;;;4991284;28;20481;-83
2023/03/21 00:57:56;;;;;;;47.40;32.03;;;11.00;99.90;;;;;;4990508;28;20109;-81
2023/03/21 01:00:22;;;;;;;55.42;34.95;;;11.00;99.90;;;;;;4988385;28;20089;-81
2023/03/21 01:02:56;;;;;;;59.70;33.80;;;11.00;99.90;;;;;;4989610;28;20027;-81
2023/03/21 01:08:13;;;;;;;40.53;30.58;;;11.10;99.90;;;;;;4987957;28;20157;-82
2023/03/21 01:10:41;;;;;;;40.17;29.13;;;11.10;99.90;;;;;;4989941;28;20027;-82
2023/03/21 01:13:08;;;;;;;38.50;26.58;;;11.10;99.90;;;;;;4989691;28;20113;-81
2023/03/21 01:15:35;;;;;;;35.78;27.05;;;11.10;99.90;;;;;;4986287;28;20488;-81
2023/03/21 01:18:01;;;;;;;35.95;27.42;;;11.20;99.90;;;;;;4989044;28;20089;-81
2023/03/21 01:20:28;;;;;;;42.20;29.92;;;11.10;99.90;;;;;;4991560;28;20104;-84
2023/03/21 01:22:54;;;;;;;38.50;26.85;;;11.10;99.90;;;;;;4988292;28;20030;-81
2023/03/21 01:25:20;;;;;;;46.65;29.67;;;11.00;99.90;;;;;;4989212;28;20037;-81
2023/03/21 01:27:46;;;;;;;42.25;28.00;;;11.00;99.90;;;;;;4996554;28;20097;-85
2023/03/21 01:30:12;;;;;;;41.35;28.85;;;11.00;99.90;;;;;;5008479;28;20509;-82
2023/03/21 01:32:39;;;;;;;38.45;28.30;;;11.00;99.90;;;;;;5008952;28;20030;-82
2023/03/21 01:35:06;;;;;;;46.75;31.33;;;11.00;99.90;;;;;;5006356;28;20022;-82
2023/03/21 01:37:31;;;;;;;39.55;28.52;;;11.00;99.90;;;;;;4996684;28;20027;-80
2023/03/21 01:39:58;;;;;;;47.95;33.45;;;11.00;99.90;;;;;;4988014;28;20049;-82
2023/03/21 01:42:25;;;;;;;43.17;29.85;;;11.00;99.90;;;;;;4992317;28;20034;-83
2023/03/21 01:45:03;;;;;;;45.03;30.65;;;11.00;99.90;;;;;;4996854;28;20027;-82
2023/03/21 01:47:29;;;;;;;46.80;30.20;;;11.00;99.90;;;;;;5001435;28;20022;-82
2023/03/21 01:50:00;;;;;;;38.17;27.27;;;10.90;99.90;;;;;;4998982;28;20121;-82
2023/03/21 01:52:31;;;;;;;48.17;31.20;;;11.00;99.90;;;;;;4991488;28;20097;-82
2023/03/21 01:54:59;;;;;;;46.47;30.85;;;11.00;99.90;;;;;;4991851;28;20022;-82
2023/03/21 01:57:31;;;;;;;39.85;27.73;;;11.10;99.90;;;;;;4990479;28;20105;-82
2023/03/21 02:00:04;;;;;;;36.92;26.35;;;11.10;99.90;;;;;;4989446;28;20038;-83
2023/03/21 02:02:30;;;;;;;44.53;29.85;;;10.90;99.90;;;;;;4989585;28;20026;-81
2023/03/21 02:05:01;;;;;;;45.55;29.98;;;10.90;99.90;;;;;;4987621;28;20141;-81
2023/03/21 02:07:35;;;;;;;39.50;27.23;;;10.90;99.90;;;;;;4989891;28;20037;-83
2023/03/21 02:10:04;;;;;;;40.05;27.85;;;10.90;99.90;;;;;;4987347;28;20061;-82
2023/03/21 02:12:30;;;;;;;41.20;26.27;;;11.00;99.90;;;;;;4987918;28;20069;-81
2023/03/21 02:14:57;;;;;;;45.60;28.42;;;11.00;99.90;;;;;;4988910;28;20018;-83
2023/03/21 02:17:47;;;;;;;43.88;28.35;;;11.00;99.90;;;;;;4985399;28;20046;-83
2023/03/21 02:20:20;;;;;;;40.92;28.17;;;11.00;99.90;;;;;;4987798;28;20118;-82
2023/03/21 02:22:59;;;;;;;42.50;27.27;;;11.00;99.90;;;;;;4987829;28;20046;-83
2023/03/21 02:25:48;;;;;;;42.30;28.58;;;11.00;99.90;;;;;;5003738;28;20126;-83
2023/03/21 02:28:24;;;;;;;42.60;25.92;;;11.00;99.90;;;;;;4988172;28;20038;-84
2023/03/21 02:30:55;;;;;;;32.03;22.15;;;11.00;99.90;;;;;;4989197;28;20129;-83
2023/03/21 02:33:24;;;;;;;37.33;26.35;;;11.00;99.90;;;;;;4989533;28;20022;-82
2023/03/21 02:36:08;;;;;;;44.28;30.52;;;11.00;99.90;;;;;;4987789;28;20030;-83
2023/03/21 02:38:47;;;;;;;40.55;29.85;;;10.90;99.90;;;;;;4986339;28;20085;-84
2023/03/21 02:41:26;;;;;;;41.00;28.27;;;10.90;99.90;;;;;;4989521;28;20105;-82
2023/03/21 02:43:58;;;;;;;45.17;31.33;;;10.90;99.90;;;;;;4986912;28;20469;-83
2023/03/21 02:46:34;;;;;;;50.70;32.03;;;10.80;99.90;;;;;;4985202;28;20037;-84
2023/03/21 02:49:05;;;;;;;44.90;29.50;;;10.80;99.90;;;;;;4988911;28;20034;-81
2023/03/21 02:51:32;;;;;;;44.42;29.73;;;10.80;99.90;;;;;;4985645;28;20019;-82
2023/03/21 02:54:07;;;;;;;40.88;27.75;;;10.80;99.90;;;;;;4985868;28;20035;-82
2023/03/21 02:56:35;;;;;;;38.97;27.50;;;10.90;99.90;;;;;;4988753;28;20085;-83
2023/03/21 02:59:05;;;;;;;41.17;29.95;;;10.80;99.90;;;;;;4992934;28;20481;-82
2023/03/21 03:01:31;;;;;;;42.47;29.98;;;10.80;99.90;;;;;;4998299;28;20087;-82
2023/03/21 03:03:57;;;;;;;33.08;24.27;;;10.90;99.90;;;;;;5006742;28;20026;-82
2023/03/21 03:06:32;;;;;;;42.35;30.85;;;10.90;99.90;;;;;;5010956;28;20053;-83
2023/03/21 03:09:12;;;;;;;35.10;24.85;;;10.90;99.90;;;;;;5002320;28;20608;-83
2023/03/21 03:11:43;;;;;;;41.15;28.17;;;11.00;99.90;;;;;;4998567;28;20030;-83
2023/03/21 03:14:20;;;;;;;38.92;27.08;;;11.00;99.90;;;;;;4997591;28;20034;-83
2023/03/21 03:17:16;;;;;;;39.47;26.13;;;11.00;99.90;;;;;;4999219;28;20061;-82
2023/03/21 03:20:12;;;;;;;42.85;31.27;;;11.00;99.90;;;;;;4993200;28;20043;-82
2023/03/21 03:23:17;;;;;;;46.38;31.50;;;10.90;99.90;;;;;;4993096;28;20108;-82
2023/03/21 03:25:51;;;;;;;51.13;33.25;;;10.90;99.90;;;;;;4992210;28;20045;-83
2023/03/21 03:28:21;;;;;;;35.60;23.83;;;10.80;99.90;;;;;;4987243;28;20485;-82
2023/03/21 03:30:50;;;;;;;43.65;29.00;;;10.90;99.90;;;;;;4996595;28;20030;-82
2023/03/21 03:33:22;;;;;;;49.22;33.63;;;10.90;99.90;;;;;;4994930;28;20405;-82
2023/03/21 03:35:49;;;;;;;43.58;30.23;;;10.80;99.90;;;;;;4997639;28;20033;-84
2023/03/21 03:38:16;;;;;;;38.47;26.83;;;10.90;99.90;;;;;;5002360;28;20117;-84
2023/03/21 03:40:47;;;;;;;45.17;30.63;;;10.90;99.90;;;;;;5004375;28;20021;-83
2023/03/21 03:43:26;;;;;;;46.85;32.08;;;10.90;99.90;;;;;;5014971;28;20069;-83
2023/03/21 03:45:58;;;;;;;44.80;30.88;;;10.90;99.90;;;;;;5013766;28;20087;-83
2023/03/21 03:48:45;;;;;;;56.78;31.50;;;10.90;99.90;;;;;;5005483;28;20064;-83
2023/03/21 03:51:17;;;;;;;40.47;29.00;;;10.90;99.90;;;;;;4997023;28;20030;-82
2023/03/21 03:53:58;;;;;;;42.67;28.20;;;10.90;99.90;;;;;;4983719;28;20080;-82
2023/03/21 03:56:25;;;;;;;48.92;29.45;;;10.80;99.90;;;;;;4995341;28;20666;-82
2023/03/21 03:58:51;;;;;;;41.08;27.33;;;10.90;99.90;;;;;;4996073;28;20085;-81
2023/03/21 04:01:16;;;;;;;39.90;25.65;;;10.90;99.90;;;;;;4999043;28;20058;-82
2023/03/21 04:03:48;;;;;;;35.55;22.10;;;10.80;99.90;;;;;;5002689;28;20019;-82
2023/03/21 04:06:14;;;;;;;36.97;23.65;;;10.80;99.90;;;;;;4998196;28;20026;-82
2023/03/21 04:08:39;;;;;;;37.53;26.58;;;10.80;99.90;;;;;;4996487;28;20109;-82
2023/03/21 04:11:05;;;;;;;32.88;20.08;;;10.80;99.90;;;;;;4995146;28;20066;-82
2023/03/21 04:13:32;;;;;;;31.00;19.70;;;10.80;99.90;;;;;;4994622;28;20508;-84
2023/03/21 04:15:58;;;;;;;38.35;24.25;;;10.90;99.90;;;;;;4994585;28;20129;-82
2023/03/21 04:18:25;;;;;;;32.50;20.70;;;10.90;99.90;;;;;;4994637;28;20505;-84
2023/03/21 04:20:51;;;;;;;29.83;19.85;;;10.90;99.90;;;;;;4994103;28;21146;-83
2023/03/21 04:23:19;;;;;;;36.75;20.52;;;10.80;99.90;;;;;;4995013;28;20106;-81
2023/03/21 04:25:45;;;;;;;31.55;19.05;;;10.90;99.90;;;;;;4994993;28;20494;-85
2023/03/21 04:28:11;;;;;;;35.83;20.33;;;10.90;99.90;;;;;;4995329;28;20026;-84
2023/03/21 04:30:38;;;;;;;34.22;18.80;;;10.90;99.90;;;;;;4999541;28;20037;-84
2023/03/21 04:33:04;;;;;;;31.27;18.67;;;11.00;99.90;;;;;;5001601;28;20030;-84
2023/03/21 04:35:29;;;;;;;35.20;19.67;;;11.00;99.90;;;;;;4995469;28;20033;-83
2023/03/21 04:37:56;;;;;;;34.03;18.02;;;11.00;99.90;;;;;;4995465;28;20386;-83
2023/03/21 04:40:23;;;;;;;26.95;17.58;;;11.10;99.90;;;;;;4995609;28;20109;-83
2023/03/21 04:42:49;;;;;;;27.05;17.30;;;11.10;99.90;;;;;;4995180;28;20033;-83
2023/03/21 04:45:16;;;;;;;25.90;14.20;;;11.10;99.90;;;;;;4986821;28;20384;-81
2023/03/21 04:47:41;;;;;;;35.15;18.48;;;11.20;99.90;;;;;;4987974;28;20027;-82
2023/03/21 04:50:09;;;;;;;29.83;16.83;;;11.20;99.90;;;;;;4993843;28;20503;-81
2023/03/21 04:52:35;;;;;;;29.23;17.42;;;11.20;99.90;;;;;;4992523;28;20029;-83
2023/03/21 04:55:01;;;;;;;28.40;15.77;;;11.20;99.90;;;;;;5000647;28;20030;-84
2023/03/21 04:57:27;;;;;;;32.40;17.95;;;11.20;99.90;;;;;;4994798;28;20504;-81
2023/03/21 04:59:52;;;;;;;23.95;14.07;;;11.20;99.90;;;;;;5003476;28;20029;-81
2023/03/21 05:02:18;;;;;;;27.65;14.65;;;11.30;99.90;;;;;;4993740;28;20030;-81
2023/03/21 05:04:44;;;;;;;30.40;17.45;;;11.30;99.90;;;;;;4993639;28;20033;-83
2023/03/21 05:07:10;;;;;;;28.85;16.67;;;11.30;99.90;;;;;;4995197;28;20036;-83
2023/03/21 05:09:37;;;;;;;29.42;15.40;;;11.30;99.90;;;;;;4994644;28;20054;-84
2023/03/21 05:12:03;;;;;;;29.75;15.43;;;11.30;99.90;;;;;;4995240;28;20027;-81
2023/03/21 05:14:29;;;;;;;27.60;15.88;;;11.30;99.90;;;;;;4995280;28;20042;-84
2023/03/21 05:16:56;;;;;;;30.48;15.32;;;11.30;99.90;;;;;;4994262;28;20058;-82
2023/03/21 05:19:39;;;;;;;27.48;15.38;;;11.30;99.90;;;;;;4995411;28;20026;-83
2023/03/21 05:22:08;;;;;;;23.42;13.43;;;11.30;99.90;;;;;;5004607;28;20018;-84
2023/03/21 05:24:38;;;;;;;25.42;14.77;;;11.30;99.90;;;;;;5014185;28;20037;-84
2023/03/21 05:27:04;;;;;;;30.73;16.92;;;11.30;99.90;;;;;;5032888;28;20034;-82
2023/03/21 05:29:31;;;;;;;22.90;14.00;;;11.30;99.90;;;;;;5010000;28;20030;-82
2023/03/21 05:31:58;;;;;;;30.92;15.20;;;11.20;99.90;;;;;;5001578;28;20049;-81
2023/03/21 05:34:25;;;;;;;23.40;13.70;;;11.20;99.90;;;;;;4998188;28;20081;-83
2023/03/21 05:36:54;;;;;;;28.73;14.75;;;11.20;99.90;;;;;;4997280;28;20030;-83
2023/03/21 05:39:21;;;;;;;20.67;12.68;;;11.10;99.90;;;;;;4997196;28;20022;-83
2023/03/21 05:41:47;;;;;;;23.90;14.60;;;11.20;99.90;;;;;;4997523;28;20030;-84
2023/03/21 05:44:13;;;;;;;29.23;15.38;;;11.10;99.90;;;;;;5011133;28;20065;-83
2023/03/21 05:46:39;;;;;;;24.98;13.60;;;11.20;99.90;;;;;;4996132;28;20014;-81
2023/03/21 05:49:04;;;;;;;25.95;15.20;;;11.20;99.90;;;;;;5001757;28;20034;-82
2023/03/21 05:51:30;;;;;;;26.10;13.00;;;11.20;99.90;;;;;;5004264;28;20052;-83
2023/03/21 05:53:56;;;;;;;23.17;13.40;;;11.20;99.90;;;;;;5010020;28;20022;-81
2023/03/21 05:56:21;;;;;;;28.77;14.43;;;11.30;99.90;;;;;;5020594;28;20018;-82
2023/03/21 05:58:47;;;;;;;28.60;15.75;;;11.30;99.90;;;;;;5011522;28;20069;-82
2023/03/21 06:01:12;;;;;;;29.52;15.68;;;11.30;99.90;;;;;;4997882;28;20093;-82
2023/03/21 06:03:38;;;;;;;25.90;13.68;;;11.30;99.90;;;;;;4994553;28;20030;-82
2023/03/21 06:06:05;;;;;;;25.25;13.80;;;11.30;99.90;;;;;;4994295;28;20027;-83
2023/03/21 06:08:31;;;;;;;20.27;13.93;;;11.40;99.90;;;;;;4989352;28;20029;-81
2023/03/21 06:10:57;;;;;;;27.25;14.77;;;11.40;99.90;;;;;;4997865;28;20034;-82
2023/03/21 06:13:22;;;;;;;20.92;13.38;;;11.50;99.90;;;;;;5001212;28;20042;-83
2023/03/21 06:15:48;;;;;;;24.08;14.27;;;11.40;99.90;;;;;;5000589;28;20102;-83
2023/03/21 06:18:13;;;;;;;26.67;14.80;;;11.40;99.90;;;;;;5003213;28;20492;-81
2023/03/21 06:20:39;;;;;;;29.02;14.45;;;11.50;99.90;;;;;;5004128;28;20022;-82
2023/03/21 06:23:05;;;;;;;28.63;15.00;;;11.50;99.90;;;;;;5003369;28;20385;-84
2023/03/21 06:25:31;;;;;;;20.80;13.18;;;11.50;99.90;;;;;;5001678;28;20018;-82
2023/03/21 06:27:56;;;;;;;26.08;14.70;;;11.50;99.90;;;;;;4996293;28;20030;-81
2023/03/21 06:30:22;;;;;;;30.00;14.95;;;11.40;99.90;;;;;;4988338;28;20452;-82
2023/03/21 06:32:48;;;;;;;26.38;14.52;;;11.40;99.90;;;;;;4999946;28;20037;-83
2023/03/21 06:35:14;;;;;;;31.70;15.68;;;11.50;99.90;;;;;;4996684;28;20014;-82
2023/03/21 06:37:40;;;;;;;26.77;14.60;;;11.50;99.90;;;;;;4994658;28;20488;-82
2023/03/21 06:40:08;;;;;;;27.88;14.48;;;11.50;99.90;;;;;;4993571;28;20034;-81
2023/03/21 06:42:35;;;;;;;26.10;15.85;;;11.50;99.90;;;;;;4995329;28;20030;-82
2023/03/21 06:45:00;;;;;;;28.75;14.55;;;11.40;99.90;;;;;;5002471;28;20073;-83
2023/03/21 06:47:26;;;;;;;30.63;14.90;;;11.40;99.90;;;;;;4994664;28;20069;-82
2023/03/21 06:49:52;;;;;;;28.35;13.38;;;11.40;99.90;;;;;;4994054;28;20457;-82
2023/03/21 06:52:18;;;;;;;28.73;15.18;;;11.50;99.90;;;;;;4992902;28;20030;-81
2023/03/21 06:54:44;;;;;;;26.98;12.80;;;11.50;99.90;;;;;;4973569;28;20043;-79
2023/03/21 06:57:10;;;;;;;23.38;12.57;;;11.50;99.90;;;;;;4985671;28;20077;-81
2023/03/21 06:59:36;;;;;;;22.58;11.75;;;11.60;99.90;;;;;;4991378;28;20026;-82
2023/03/21 07:02:02;;;;;;;22.90;12.82;;;11.60;99.90;;;;;;5005501;28;20023;-83
2023/03/21 07:04:28;;;;;;;27.00;14.23;;;11.60;99.90;;;;;;4998546;28;20117;-82
2023/03/21 07:06:54;;;;;;;26.08;12.00;;;11.70;99.90;;;;;;5018914;28;20456;-83
2023/03/21 07:09:23;;;;;;;29.35;13.50;;;11.70;99.90;;;;;;4992731;28;20037;-81
2023/03/21 07:11:52;;;;;;;28.80;13.40;;;11.70;99.90;;;;;;4992363;28;20381;-83
2023/03/21 07:14:17;;;;;;;21.50;12.07;;;11.70;99.80;;;;;;4991496;28;20022;-82
2023/03/21 07:16:43;;;;;;;21.17;12.13;;;11.80;99.70;;;;;;4990863;28;20493;-82
2023/03/21 07:19:09;;;;;;;23.55;13.40;;;11.80;99.60;;;;;;4990615;28;20108;-82
2023/03/21 07:21:35;;;;;;;25.88;13.43;;;11.80;99.60;;;;;;4992210;28;20038;-81
2023/03/21 07:24:00;;;;;;;23.85;11.68;;;11.80;99.50;;;;;;5008483;28;20034;-83
2023/03/21 07:26:26;;;;;;;23.65;12.82;;;11.90;99.40;;;;;;5010978;28;20076;-81
2023/03/21 07:28:52;;;;;;;24.48;12.50;;;11.90;99.30;;;;;;4996608;28;20089;-82
2023/03/21 07:31:18;;;;;;;26.95;12.75;;;11.90;99.30;;;;;;4990514;28;20026;-83
2023/03/21 07:33:44;;;;;;;19.63;10.68;;;11.80;99.20;;;;;;4989911;28;20493;-80
2023/03/21 07:36:14;;;;;;;20.75;10.25;;;11.90;99.40;;;;;;4986557;28;20433;-83
2023/03/21 07:38:40;;;;;;;24.60;10.95;;;11.90;99.30;;;;;;4988472;28;20030;-79
2023/03/21 07:41:05;;;;;;;29.10;12.15;;;11.90;99.30;;;;;;4990272;28;20061;-79
2023/03/21 07:43:31;;;;;;;16.67;9.63;;;12.00;99.20;;;;;;4990316;28;20489;-79
2023/03/21 07:45:58;;;;;;;19.92;11.95;;;12.00;99.10;;;;;;5004975;28;20907;-79
2023/03/21 07:48:24;;;;;;;25.40;12.55;;;11.90;99.10;;;;;;5015330;28;20057;-78
2023/03/21 07:50:50;;;;;;;28.80;14.50;;;11.90;99.10;;;;;;5006094;28;20037;-78
2023/03/21 07:53:16;;;;;;;27.85;14.25;;;12.00;99.20;;;;;;5003980;28;20026;-79
2023/03/21 07:55:42;;;;;;;20.38;10.38;;;11.90;99.10;;;;;;4998832;28;20038;-78
2023/03/21 07:58:08;;;;;;;25.55;11.52;;;11.90;99.10;;;;;;4996146;28;20022;-78
2023/03/21 08:00:34;;;;;;;21.70;10.40;;;11.80;99.30;;;;;;5001238;28;20022;-79
2023/03/21 08:03:00;;;;;;;19.65;10.10;;;11.70;99.50;;;;;;5004439;28;20014;-79
2023/03/21 08:05:34;;;;;;;18.25;9.93;;;11.70;99.60;;;;;;5002872;28;20018;-80
2023/03/21 08:08:00;;;;;;;20.10;10.70;;;11.70;99.80;;;;;;5001620;28;20038;-80
2023/03/21 08:10:26;;;;;;;27.75;11.23;;;11.70;99.90;;;;;;4997287;28;20042;-79
2023/03/21 08:12:52;;;;;;;21.48;9.73;;;11.70;99.90;;;;;;4990641;28;20068;-78
2023/03/21 08:15:18;;;;;;;19.67;10.43;;;11.70;99.90;;;;;;5001082;28;20022;-77
2023/03/21 08:17:44;;;;;;;20.75;11.43;;;11.60;99.90;;;;;;5001984;28;20049;-78
2023/03/21 08:20:16;;;;;;;22.52;10.63;;;11.60;99.90;;;;;;5002632;28;20410;-78
2023/03/21 08:22:42;;;;;;;23.40;11.27;;;11.60;99.90;;;;;;4988613;28;20077;-77
2023/03/21 08:25:12;;;;;;;21.75;10.63;;;11.60;99.90;;;;;;4996915;28;20030;-80
2023/03/21 08:27:39;;;;;;;18.00;9.77;;;11.60;99.90;;;;;;4994935;28;20117;-77
2023/03/21 08:30:05;;;;;;;20.92;9.35;;;11.60;99.90;;;;;;5000958;28;20060;-77
2023/03/21 08:32:32;;;;;;;18.70;9.10;;;11.70;99.90;;;;;;5001190;28;20575;-78
2023/03/21 08:34:59;;;;;;;22.52;9.85;;;11.70;99.90;;;;;;4998524;28;20031;-78
2023/03/21 08:37:27;;;;;;;30.10;11.23;;;11.80;99.90;;;;;;4994879;28;20023;-78
2023/03/21 08:39:53;;;;;;;19.65;11.00;;;11.80;99.90;;;;;;4992636;28;20034;-77
2023/03/21 08:42:20;;;;;;;17.73;8.10;;;11.70;99.90;;;;;;4992127;28;20026;-78
2023/03/21 08:44:46;;;;;;;22.08;10.57;;;11.70;99.90;;;;;;4994841;28;20121;-77
2023/03/21 08:47:12;;;;;;;24.10;11.43;;;11.80;99.90;;;;;;4996913;28;20514;-78
2023/03/21 08:49:37;;;;;;;16.23;7.72;;;11.80;99.90;;;;;;4993225;28;20027;-77
2023/03/21 08:52:05;;;;;;;23.10;10.60;;;11.90;99.90;;;;;;4989054;28;20140;-77
2023/03/21 08:54:30;;;;;;;18.25;10.68;;;11.80;99.90;;;;;;5003702;28;20109;-76
2023/03/21 08:56:56;;;;;;;25.17;10.43;;;11.80;99.90;;;;;;4987459;28;21655;-78
2023/03/21 08:59:22;;;;;;;19.25;8.38;;;11.80;99.90;;;;;;4988338;28;20045;-78
2023/03/21 09:01:47;;;;;;;17.35;8.07;;;11.90;99.90;;;;;;4988658;28;20034;-78
2023/03/21 09:04:13;;;;;;;19.17;7.65;;;11.90;99.90;;;;;;4987177;28;20058;-76
2023/03/21 09:06:44;;;;;;;22.77;10.60;;;11.90;99.90;;;;;;4988116;28;20425;-75
2023/03/21 09:09:11;;;;;;;16.65;8.18;;;12.00;99.90;;;;;;4990892;28;20038;-79
2023/03/21 09:11:37;;;;;;;20.02;8.55;;;12.00;99.90;;;;;;4985083;28;20150;-76
2023/03/21 09:14:03;;;;;;;24.85;9.75;;;12.00;99.90;;;;;;4988438;28;20101;-76
2023/03/21 09:16:30;;;;;;;17.77;10.02;;;12.00;99.90;;;;;;4988311;28;20050;-77
2023/03/21 09:18:57;;;;;;;15.70;9.93;;;12.10;99.90;;;;;;4989103;28;20019;-77
2023/03/21 09:21:26;;;;;;;13.90;6.72;;;12.10;99.90;;;;;;4988054;28;20027;-78
2023/03/21 09:23:54;;;;;;;12.20;6.60;;;12.10;99.80;;;;;;5003114;28;20056;-76
2023/03/21 09:26:20;;;;;;;17.13;8.57;;;12.10;99.50;;;;;;4993691;28;20057;-76
2023/03/21 09:28:48;;;;;;;13.80;6.45;;;12.20;99.50;;;;;;4989878;28;20050;-77
2023/03/21 09:31:18;;;;;;;15.48;5.70;;;12.20;99.40;;;;;;4990341;28;20025;-76
2023/03/21 09:33:43;;;;;;;16.70;7.63;;;12.20;99.30;;;;;;4988140;28;20312;-75
2023/03/21 09:36:12;;;;;;;12.50;5.25;;;12.30;99.40;;;;;;4991770;28;20100;-76
2023/03/21 09:38:41;;;;;;;19.10;8.35;;;12.30;99.10;;;;;;4989778;28;20108;-76
2023/03/21 09:41:45;;;;;;;14.35;8.25;;;12.40;99.20;;;;;;4988729;28;20519;-76
2023/03/21 09:44:40;;;;;;;16.75;8.52;;;12.40;99.20;;;;;;4991159;28;20038;-75
2023/03/21 09:47:27;;;;;;;15.00;7.10;;;12.50;99.20;;;;;;4992114;28;20046;-77
2023/03/21 09:50:19;;;;;;;18.00;7.90;;;12.40;98.70;;;;;;4987513;28;20038;-76
2023/03/21 09:53:19;;;;;;;10.57;4.55;;;12.40;98.90;;;;;;4986013;28;20026;-78
2023/03/21 09:55:46;;;;;;;12.55;7.18;;;12.40;98.70;;;;;;4985052;28;20113;-75
2023/03/21 09:58:27;;;;;;;11.88;6.03;;;12.50;98.70;;;;;;4990049;28;20034;-76
2023/03/21 10:01:27;;;;;;;11.55;5.50;;;12.50;98.40;;;;;;4989154;28;20031;-76
2023/03/21 10:03:55;;;;;;;13.50;8.48;;;12.50;98.30;;;;;;5004607;28;20064;-77
2023/03/21 10:06:28;;;;;;;13.43;6.43;;;12.50;98.30;;;;;;5001278;28;20105;-77
2023/03/21 10:08:58;;;;;;;11.52;5.82;;;12.50;98.70;;;;;;5003699;28;20507;-78
2023/03/21 10:11:32;;;;;;;14.65;6.82;;;12.50;98.20;;;;;;4992706;28;20108;-77
2023/03/21 10:14:04;;;;;;;20.13;8.30;;;12.60;98.40;;;;;;4988885;28;20037;-74
2023/03/21 10:16:50;;;;;;;14.73;6.97;;;12.60;98.40;;;;;;4986929;28;20038;-76
2023/03/21 10:19:18;;;;;;;13.80;5.88;;;12.60;98.10;;;;;;4986199;28;20037;-77
2023/03/21 10:21:48;;;;;;;12.93;7.03;;;12.70;98.20;;;;;;4984963;28;20092;-77
2023/03/21 10:24:16;;;;;;;;;;;12.70;98.10;;;;;;4985586;28;20057;-77
2023/03/21 10:26:44;;;;;;;14.27;6.80;;;12.80;98.10;;;;;;4986239;28;20361;-76
2023/03/21 10:29:13;;;;;;;13.25;7.13;;;12.80;98.20;;;;;;4985476;28;20497;-77
2023/03/21 10:31:40;;;;;;;16.10;6.85;;;12.80;97.90;;;;;;4988167;28;20070;-76
2023/03/21 10:34:16;;;;;;;16.67;7.47;;;12.90;97.70;;;;;;4987274;28;20411;-75
2023/03/21 10:36:43;;;;;;;15.07;6.75;;;12.90;97.50;;;;;;4985303;28;20037;-75
2023/03/21 10:39:32;;;;;;;14.88;7.05;;;13.00;97.50;;;;;;4986406;28;20034;-76
2023/03/21 10:41:58;;;;;;;9.10;4.43;;;13.10;97.10;;;;;;4987422;28;20022;-74
2023/03/21 10:44:30;;;;;;;12.57;7.68;;;13.10;97.00;;;;;;4994485;28;20026;-77
2023/03/21 10:47:08;;;;;;;16.40;6.55;;;13.10;97.10;;;;;;4991225;28;20018;-76
2023/03/21 10:49:36;;;;;;;13.38;6.13;;;13.20;97.00;;;;;;4996170;28;20049;-76
2023/03/21 10:52:06;;;;;;;12.82;5.90;;;13.20;96.90;;;;;;4986620;28;20184;-76
2023/03/21 10:54:34;;;;;;;12.73;6.07;;;13.20;96.70;;;;;;4985853;28;20467;-75
2023/03/21 10:57:14;;;;;;;12.40;6.60;;;13.30;96.80;;;;;;4984403;28;20034;-75
2023/03/21 10:59:52;;;;;;;13.40;6.90;;;13.30;96.70;;;;;;4991187;28;20038;-77
2023/03/21 11:02:29;;;;;;;12.93;6.07;;;13.30;96.70;;;;;;4992817;28;20026;-76
2023/03/21 11:04:57;;;;;;;16.30;8.05;;;13.40;96.60;;;;;;4992375;28;20018;-74
2023/03/21 11:07:29;;;;;;;13.27;7.40;;;13.50;96.30;;;;;;4991164;28;20026;-76
2023/03/21 11:09:59;;;;;;;10.82;5.75;;;13.70;96.30;;;;;;4991957;28;20152;-76
2023/03/21 11:12:45;;;;;;;13.57;6.70;;;13.70;96.10;;;;;;4988379;28;20390;-75
2023/03/21 11:15:39;;;;;;;16.58;7.25;;;13.70;96.00;;;;;;4989540;28;20289;-76
2023/03/21 11:18:18;;;;;;;14.65;5.80;;;13.80;95.90;;;;;;4995209;28;20093;-76
2023/03/21 11:20:54;;;;;;;11.87;5.17;;;13.80;95.70;;;;;;4992093;28;20045;-74
2023/03/21 11:23:24;;;;;;;10.77;4.47;;;13.80;95.80;;;;;;4992195;28;20532;-76
2023/03/21 11:25:50;;;;;;;14.70;6.30;;;13.80;95.90;;;;;;4988579;28;20022;-74
2023/03/21 11:28:20;;;;;;;17.30;6.57;;;13.80;95.80;;;;;;4991286;28;21402;-75
2023/03/21 11:30:52;;;;;;;12.65;5.78;;;13.80;95.80;;;;;;4989634;28;20030;-75
2023/03/21 11:33:20;;;;;;;12.43;5.28;;;13.90;95.80;;;;;;4993044;28;20056;-74
2023/03/21 11:36:26;;;;;;;16.08;6.70;;;13.90;95.60;;;;;;4991906;28;20037;-75
2023/03/21 11:38:55;;;;;;;13.18;7.13;;;13.90;95.40;;;;;;4989441;28;20049;-74
2023/03/21 11:41:29;;;;;;;12.55;6.35;;;13.80;95.50;;;;;;4988992;28;20084;-74
2023/03/21 11:43:56;;;;;;;10.50;5.70;;;13.80;95.50;;;;;;4990673;28;20022;-74
2023/03/21 11:46:31;;;;;;;12.77;7.13;;;13.90;95.40;;;;;;4989576;28;20917;-74
2023/03/21 11:48:58;;;;;;;14.18;6.93;;;13.90;95.40;;;;;;4989713;28;20041;-74
2023/03/21 11:51:42;;;;;;;11.55;6.03;;;13.90;95.40;;;;;;4988972;28;20062;-73
2023/03/21 11:54:20;;;;;;;11.40;5.00;;;14.00;95.60;;;;;;4988557;28;20018;-73
2023/03/21 11:56:50;;;;;;;13.88;5.75;;;14.10;95.40;;;;;;4988731;28;20113;-75
2023/03/21 11:59:46;;;;;;;10.80;4.70;;;14.20;95.10;;;;;;4986853;28;20041;-75
2023/03/21 12:02:35;;;;;;;12.43;6.50;;;14.20;95.00;;;;;;4975208;28;20042;-73
2023/03/21 12:05:20;;;;;;;14.80;6.03;;;14.20;95.00;;;;;;4990926;28;20589;-74
2023/03/21 12:07:51;;;;;;;12.75;5.47;;;14.20;94.90;;;;;;4990597;28;20030;-72
2023/03/21 12:10:45;;;;;;;19.10;7.13;;;14.20;94.90;;;;;;4996827;28;20113;-74
2023/03/21 12:13:23;;;;;;;13.73;5.43;;;14.20;94.90;;;;;;4989235;28;20389;-76
2023/03/21 12:16:29;;;;;;;18.42;7.05;;;14.20;94.60;;;;;;4992530;28;20023;-73
2023/03/21 12:19:11;;;;;;;10.98;5.28;;;14.20;94.40;;;;;;4989171;28;20018;-74
2023/03/21 12:21:53;;;;;;;14.55;4.82;;;14.30;94.60;;;;;;4991523;28;20057;-74
2023/03/21 12:24:28;;;;;;;13.48;5.88;;;14.40;94.40;;;;;;4999074;28;20034;-75
2023/03/21 12:27:08;;;;;;;12.77;5.40;;;14.30;93.90;;;;;;5008262;28;20026;-73
2023/03/21 12:29:51;;;;;;;10.93;5.35;;;14.30;94.30;;;;;;4993704;28;20039;-75
2023/03/21 12:32:17;;;;;;;13.35;5.47;;;14.30;94.30;;;;;;4988035;28;20031;-75
2023/03/21 12:35:11;;;;;;;11.57;4.15;;;14.30;93.90;;;;;;4989040;28;20089;-76
2023/03/21 12:38:09;;;;;;;9.73;5.38;;;14.30;93.90;;;;;;4983842;28;20603;-77
2023/03/21 12:40:51;;;;;;;11.63;5.93;;;14.20;94.00;;;;;;4992219;28;20022;-76
2023/03/21 12:43:32;;;;;;;15.90;6.40;;;14.20;94.00;;;;;;4989238;28;20774;-75
2023/03/21 12:46:02;;;;;;;12.95;5.07;;;14.20;93.90;;;;;;4990354;28;20219;-75
2023/03/21 12:48:52;;;;;;;19.17;5.50;;;14.20;94.00;;;;;;4991921;28;20022;-76
2023/03/21 12:51:23;;;;;;;11.48;4.93;;;14.20;94.00;;;;;;4993628;28;20038;-75